Flight Track Log - Related Links

Times and Time Zones

All times are in EDT time to prevent confusion due to time zone crossing. See the ASQ4492 flight status page for this flight to view local times or setup timezone preferences in your user account.

Time Position Orientation Groundspeed Altitude Reporting Facility
EDT Latitude Longitude Course Direction KTS MPH feet Rate Location/Type
Fri 12:57:01 AM 29.9775 -95.3319 214° Southwest 152 175 500  Level Houston Center
Fri 12:57:56 AM 29.9403 -95.3606 214° Southwest 246 283 2,200 1,878 Climbing Houston Center
Fri 12:58:56 AM 29.8986 -95.2981 128° Southeast 265 305 4,100 2,061 Climbing Houston Center
Fri 01:00:07 AM 29.8622 -95.2211 119° Southeast 275 316 6,700 2,473 Climbing Houston Center
Fri 01:01:07 AM 29.8650 -95.1375 88° East 277 319 9,500 1,934 Climbing Houston Center
Fri 01:02:08 AM 29.8931 -95.0511 69° East 287 330 10,600 992 Climbing Houston Center
Fri 01:03:08 AM 29.9081 -94.9381 81° East 344 396 11,500 1,190 Climbing Houston Center
Fri 01:04:09 AM 29.9253 -94.8167 81° East 372 428 13,000 1,488 Climbing Houston Center
Fri 01:05:09 AM 29.9433 -94.6919 80° East 388 447 14,500 1,488 Climbing Houston Center
Fri 01:06:10 AM 29.9642 -94.5400 81° East 397 457 16,000 1,240 Climbing Houston Center
Fri 01:07:10 AM 29.9825 -94.4083 81° East 412 474 17,000 942 Climbing Houston Center
Fri 01:08:11 AM 29.9997 -94.2722 82° East 425 489 17,900 992 Climbing Houston Center
Fri 01:09:11 AM 30.0183 -94.1317 81° East 438 504 19,000 1,017 Climbing Houston Center
Fri 01:11:00 AM 30.0333 -93.9175 85° East  Level FlightAware Approximate
Fri 01:12:13 AM 30.0711 -93.6958 85° East 461 531 22,000  Level Houston Center
Fri 01:13:13 AM 30.0908 -93.5475 81° East 464 534 22,900 496 Climbing Houston Center
Fri 01:14:14 AM 30.1025 -93.4114 84° East 474 545 23,000 50 Climbing Houston Center
Fri 01:15:14 AM 30.1200 -93.2606 82° East 478 550 23,000  Level Houston Center
Fri 01:16:15 AM 30.1456 -93.0800 81° East 477 549 23,000  Level Houston Center
Fri 01:17:15 AM 30.1731 -92.9292 78° East 481 554 23,000  Level Houston Center
Fri 01:18:15 AM 30.2025 -92.7844 77° East 471 542 23,000  Level Houston Center
Fri 01:19:16 AM 30.2314 -92.6431 77° East 458 527 23,000  Level Houston Center
Fri 01:20:16 AM 30.2578 -92.5047 78° East 446 513 23,000  Level Houston Center
Fri 01:21:17 AM 30.2844 -92.3675 77° East 442 509 23,000  Level Houston Center
Fri 01:22:17 AM 30.3092 -92.2322 78° East 434 499 23,000  Level Houston Center
Fri 01:23:18 AM 30.3358 -92.0983 77° East 431 496 23,000  Level Houston Center
Fri 01:24:18 AM 30.3606 -91.9669 78° East 423 487 23,000  Level Houston Center
Fri 01:25:18 AM 30.3842 -91.8375 78° East 415 478 23,000  Level Houston Center
Fri 01:26:19 AM 30.4072 -91.7200 77° East 410 472 23,000  Level Houston Center
Fri 01:27:19 AM 30.4303 -91.6008 77° East 383 441 23,000  Level Houston Center
Fri 01:28:19 AM 30.4503 -91.4861 79° East 367 422 23,000  Level Houston Center
Fri 01:29:20 AM 30.4533 -91.3767 88° East 357 411 23,000  Level Houston Center
Fri 01:30:20 AM 30.3889 -91.3731 177° South 273 314 23,000  Level Houston Center
Fri 01:31:20 AM 30.3831 -91.4542 265° West 255 293 23,000  Level Houston Center
Fri 01:32:21 AM 30.3744 -91.5650 265° West 286 329 23,000  Level Houston Center
Fri 01:33:21 AM 30.3644 -91.6614 263° West 300 345 23,000  Level Houston Center
Fri 01:34:21 AM 30.3575 -91.7478 265° West 305 351 23,000  Level Houston Center
Fri 01:35:22 AM 30.3475 -91.8481 263° West 312 359 23,000  Level Houston Center
Fri 01:36:22 AM 30.3383 -91.9442 264° West 303 349 23,000  Level Houston Center
Fri 01:37:22 AM 30.3292 -92.0378 264° West 294 338 23,000  Level Houston Center
Fri 01:38:22 AM 30.3197 -92.1319 263° West 294 338 23,000  Level Houston Center
Fri 01:39:23 AM 30.3097 -92.2317 263° West 308 354 23,000  Level Houston Center
Fri 01:40:23 AM 30.3000 -92.3258 263° West 299 344 23,000  Level Houston Center
Fri 01:41:23 AM 30.2900 -92.4156 263° West 285 328 23,000  Level Houston Center
Fri 01:42:24 AM 30.2811 -92.5061 264° West 283 326 23,000  Level Houston Center
Fri 01:43:24 AM 30.2714 -92.5972 263° West 286 329 23,000  Level Houston Center
Fri 01:44:24 AM 30.2619 -92.6886 263° West 286 329 23,000  Level Houston Center
Fri 01:45:25 AM 30.2508 -92.7825 262° West 293 337 23,000  Level Houston Center
Fri 01:46:25 AM 30.2411 -92.8811 264° West 305 351 23,000  Level Houston Center
Fri 01:47:25 AM 30.2303 -92.9783 263° West 305 351 23,000  Level Houston Center
Fri 01:48:25 AM 30.2189 -93.0756 262° West 305 351 23,000  Level Houston Center
Fri 01:49:26 AM 30.2078 -93.1786 263° West 319 367 23,000  Level Houston Center
Fri 01:50:26 AM 30.1964 -93.2808 263° West 321 369 23,000  Level Houston Center
Fri 01:51:26 AM 30.1847 -93.3856 263° West 327 376 23,000  Level Houston Center
Fri 01:52:26 AM 30.1728 -93.4922 263° West 332 382 23,000  Level Houston Center
Fri 01:53:27 AM 30.1583 -93.6147 262° West 346 398 23,000  Level Houston Center
Fri 01:54:27 AM 30.1461 -93.7242 263° West 345 397 23,000 -550 Level Houston Center
Fri 01:55:27 AM 30.1339 -93.8317 263° West 339 390 21,900 -1,373 Descending Houston Center
Fri 01:55:50 AM 30.1283 -93.8778 262° West 336 387 21,100 -1,800 Descending Houston Center
Fri 01:56:27 AM 30.1217 -93.9342 262° West 327 376 20,100 -1,964 Descending Houston Center
Fri 01:56:45 AM 30.1172 -93.9761 263° West 319 367 19,300 -1,869 Descending Houston Center
Fri 01:57:28 AM 30.1100 -94.0386 262° West 326 375 18,200 -1,900 Descending Houston Center
Fri 01:57:45 AM 30.1047 -94.0794 262° West 334 384 17,400 -1,900 Descending Houston Center
Fri 01:58:28 AM 30.0978 -94.1433 263° West 329 379 16,300 -1,862 Descending Houston Center
Fri 01:59:41 AM 30.0819 -94.2733 262° West 307 353 13,800 -1,900 Descending Houston Center
Fri 02:00:28 AM 30.0742 -94.3386 262° West 310 357 12,500 -1,556 Descending Houston Center
Fri 02:01:29 AM 30.0631 -94.4367 263° West 309 356 11,000 -793 Descending Houston Center
Fri 02:02:29 AM 30.0511 -94.5333 262° West 307 353 10,900 -550 Descending Houston Center
Fri 02:03:29 AM 30.0408 -94.6222 262° West 295 339 9,900 -1,300 Descending Houston Center
Fri 02:04:29 AM 30.0314 -94.6958 262° West 258 297 8,300 -1,840 Descending Houston Center
Fri 02:04:44 AM 30.0272 -94.7225 260° West 233 268 7,600 -1,770 Descending Houston Center
Fri 02:05:30 AM 30.0197 -94.7703 260° West 240 276 6,500 -1,472 Descending Houston Center
Fri 02:06:30 AM 30.0047 -94.8394 256° West 233 268 5,000 -1,200 Descending Houston Center
Fri 02:06:45 AM 29.9994 -94.8708 259° West 236 272 5,000  Level Houston Center
Fri 02:07:30 AM 29.9928 -94.9139 260° West 235 270 5,000  Level Houston Center
Fri 02:07:45 AM 29.9939 -94.9439 272° West 228 262 5,000  Level Houston Center
Fri 02:08:30 AM 29.9942 -94.9869 270° West 232 267 5,000  Level Houston Center
Fri 02:08:46 AM 29.9925 -95.0189 267° West 231 266 5,000 -300 Level Houston Center
Fri 02:09:30 AM 29.9936 -95.0597 272° West 230 265 4,700 -857 Descending Houston Center
Fri 02:10:31 AM 29.9939 -95.1317 270° West 227 261 3,500 -1,190 Descending Houston Center
Fri 02:11:31 AM 29.9933 -95.1992 269° West 222 255 2,300 -1,000 Descending Houston Center
Fri 02:12:31 AM 29.9947 -95.2472 272° West 182 209 1,500 -850 Descending Houston Center
Fri 02:13:31 AM 29.9936 -95.2981 269° West 146 168 600 -595 Descending Houston Center
Fri 02:14:32 AM 29.9922 -95.3386 268° West 141 162 300 -295 Descending Houston Center
Fri 02:16:00 AM 29.9844 -95.3414 82° East  Level Estimated

Login

Don't have an account? Register now (free) for customized features, flight alerts, and more!